createdAt,value
2017-01-30T00:01:05.826Z,17.19
2017-01-30T00:02:15.348Z,17.2
2017-01-30T00:03:25.645Z,17.1
2017-01-30T00:04:35.806Z,17.14
2017-01-30T00:05:46.507Z,17.13
2017-01-30T00:06:56.845Z,17.13
2017-01-30T00:08:07.543Z,17.16
2017-01-30T00:09:17.860Z,17.22
2017-01-30T00:10:28.806Z,17.13
2017-01-30T00:11:39.105Z,17.17
2017-01-30T00:12:49.007Z,17.13
2017-01-30T00:13:58.918Z,17.16
2017-01-30T00:15:08.814Z,17.17
2017-01-30T00:16:19.008Z,17.1
2017-01-30T00:17:28.121Z,17.05
2017-01-30T00:18:38.435Z,17.12
2017-01-30T00:19:49.145Z,17.19
2017-01-30T00:20:59.472Z,17.17
2017-01-30T00:22:10.469Z,17.07
2017-01-30T00:23:20.776Z,17.1
2017-01-30T00:24:30.276Z,17.19
2017-01-30T00:25:40.571Z,17.27
2017-01-30T00:26:50.875Z,17.19
2017-01-30T00:28:01.075Z,17.19
2017-01-30T00:29:11.765Z,17.2
2017-01-30T00:30:22.047Z,17.16
2017-01-30T00:31:32.775Z,17.24
2017-01-30T00:32:42.676Z,17.22
2017-01-30T00:33:53.229Z,17.16
2017-01-30T00:35:03.129Z,17.22
2017-01-30T00:36:13.419Z,17.19
2017-01-30T00:37:23.331Z,17.12
2017-01-30T00:38:33.229Z,17.13
2017-01-30T00:39:43.372Z,17.13
2017-01-30T00:40:53.658Z,17.09
2017-01-30T00:42:03.562Z,17.16
2017-01-30T00:43:13.072Z,17.04
2017-01-30T00:44:23.372Z,17.17
2017-01-30T00:45:33.130Z,17.16
2017-01-30T00:46:43.044Z,17.16
2017-01-30T00:47:52.939Z,17.09
2017-01-30T00:49:03.454Z,17.07
2017-01-30T00:50:13.365Z,17.1
2017-01-30T00:51:23.963Z,17.13
2017-01-30T00:52:33.870Z,17.09
2017-01-30T00:53:44.557Z,17.1
2017-01-30T00:54:55.251Z,17.14
2017-01-30T00:56:05.156Z,17.12
2017-01-30T00:57:16.143Z,17.1
2017-01-30T00:58:26.424Z,17.16
2017-01-30T00:59:37.114Z,17.22
2017-01-30T01:00:47.403Z,17.13
2017-01-30T01:01:58.121Z,17.13
2017-01-30T01:03:08.706Z,17.19
2017-01-30T01:04:18.596Z,17.22
2017-01-30T01:05:28.098Z,17.2
2017-01-30T01:06:38.492Z,17.16
2017-01-30T01:07:48.392Z,17.12
2017-01-30T01:08:59.377Z,17.16
2017-01-30T01:10:09.284Z,17.14
2017-01-30T01:11:19.156Z,17.2
2017-01-30T01:12:29.019Z,17.1
2017-01-30T01:13:38.879Z,17.2
2017-01-30T01:14:49.047Z,17.19
2017-01-30T01:15:59.297Z,17.2
2017-01-30T01:17:09.186Z,17.17
2017-01-30T01:18:19.472Z,17.2
2017-01-30T01:19:29.368Z,17.19
2017-01-30T01:20:39.171Z,17.19
2017-01-30T01:21:49.065Z,17.17
2017-01-30T01:22:58.576Z,17.16
2017-01-30T01:24:08.877Z,17.14
2017-01-30T01:25:18.380Z,17.2
2017-01-30T01:26:29.312Z,17.17
2017-01-30T01:27:39.232Z,17.09
2017-01-30T01:28:49.919Z,17.14
2017-01-30T01:30:00.209Z,17.16
2017-01-30T01:31:10.900Z,17.09
2017-01-30T01:32:20.650Z,17.14
2017-01-30T01:33:30.953Z,17.14
2017-01-30T01:34:40.846Z,17.07
2017-01-30T01:35:50.743Z,17.12
2017-01-30T01:37:01.061Z,17.14
2017-01-30T01:38:11.619Z,17.12
2017-01-30T01:39:21.923Z,17.14
2017-01-30T01:40:32.242Z,17.1
2017-01-30T01:41:41.750Z,17.09
2017-01-30T01:42:52.428Z,17.1
2017-01-30T01:44:02.199Z,17.19
2017-01-30T01:45:12.500Z,17.13
2017-01-30T01:46:22.783Z,17.09
2017-01-30T01:47:32.276Z,17.13
2017-01-30T01:48:42.957Z,17.14
2017-01-30T01:49:53.496Z,17.13
2017-01-30T01:51:03.007Z,17.2
2017-01-30T01:52:13.298Z,17.16
2017-01-30T01:53:23.582Z,17.17
2017-01-30T01:54:34.265Z,17.22
2017-01-30T01:55:44.491Z,17.22
2017-01-30T01:56:54.771Z,17.2
2017-01-30T01:58:04.340Z,17.1
2017-01-30T01:59:15.037Z,17.17
2017-01-30T02:00:25.727Z,17.16
2017-01-30T02:01:36.327Z,17.22
2017-01-30T02:02:46.221Z,17.2
2017-01-30T02:03:56.125Z,17.2
2017-01-30T02:05:06.473Z,17.16
2017-01-30T02:06:16.781Z,17.1
2017-01-30T02:07:27.319Z,17.13
2017-01-30T02:08:36.841Z,17.1
2017-01-30T02:09:47.143Z,17.1
2017-01-30T02:10:57.831Z,17.2
2017-01-30T02:12:07.336Z,17.1
2017-01-30T02:13:16.714Z,17.16
2017-01-30T02:14:26.244Z,17.19
2017-01-30T02:15:35.746Z,17.14
2017-01-30T02:16:45.268Z,17.1
2017-01-30T02:17:55.181Z,17.1
2017-01-30T02:19:04.935Z,17.16
2017-01-30T02:20:14.491Z,17.07
2017-01-30T02:21:24.385Z,17.16
2017-01-30T02:22:34.281Z,17.01
2017-01-30T02:23:44.576Z,17.09
2017-01-30T02:24:55.134Z,17.12
2017-01-30T02:26:05.041Z,17.16
2017-01-30T02:27:14.968Z,17.14
2017-01-30T02:28:24.472Z,17.07
2017-01-30T02:29:34.001Z,17.09
2017-01-30T02:30:44.160Z,17.1
2017-01-30T02:31:54.852Z,17.14
2017-01-30T02:33:04.773Z,17.19
2017-01-30T02:34:15.060Z,17.12
2017-01-30T02:35:24.967Z,17.23
2017-01-30T02:36:35.118Z,17.14
2017-01-30T02:37:45.820Z,17.1
2017-01-30T02:38:55.325Z,17.2
2017-01-30T02:40:05.619Z,17.13
2017-01-30T02:41:15.920Z,17.13
2017-01-30T02:42:26.509Z,17.2
2017-01-30T02:43:37.187Z,17.19
2017-01-30T02:44:46.699Z,17.1
2017-01-30T02:45:56.201Z,17.07
2017-01-30T02:47:06.486Z,17.14
2017-01-30T02:48:17.037Z,17.16
2017-01-30T02:49:27.321Z,17.17
2017-01-30T02:50:37.235Z,17.16
2017-01-30T02:51:46.736Z,17.05
2017-01-30T02:52:57.035Z,17.16
2017-01-30T02:54:07.580Z,17.14
2017-01-30T02:55:17.511Z,17.05
2017-01-30T02:56:27.793Z,17.16
2017-01-30T02:57:37.321Z,17.12
2017-01-30T02:58:46.832Z,17.13
2017-01-30T02:59:57.372Z,17.1
2017-01-30T03:01:07.274Z,17.07
2017-01-30T03:02:17.953Z,17.16
2017-01-30T03:03:28.642Z,17.16
2017-01-30T03:04:38.550Z,17.16
2017-01-30T03:05:49.478Z,17.19
2017-01-30T03:06:59.871Z,17.13
2017-01-30T03:08:09.776Z,17.16
2017-01-30T03:09:20.077Z,17.14
2017-01-30T03:10:30.756Z,17.2
2017-01-30T03:11:40.953Z,17.13
2017-01-30T03:12:51.260Z,17.16
2017-01-30T03:14:01.152Z,17.19
2017-01-30T03:15:11.049Z,17.12
2017-01-30T03:16:20.950Z,17.16
2017-01-30T03:17:31.893Z,17.13
2017-01-30T03:18:41.006Z,17.14
2017-01-30T03:19:51.732Z,17.14
2017-01-30T03:21:01.648Z,17.12
2017-01-30T03:22:11.941Z,17.12
2017-01-30T03:23:22.538Z,17.17
2017-01-30T03:24:32.831Z,17.07
2017-01-30T03:25:42.365Z,17.1
2017-01-30T03:26:52.653Z,17.1
2017-01-30T03:28:02.544Z,17.16
2017-01-30T03:29:12.749Z,17.13
2017-01-30T03:30:22.672Z,17.12
2017-01-30T03:31:32.568Z,17.07
2017-01-30T03:32:43.255Z,17.13
2017-01-30T03:33:53.155Z,17.17
2017-01-30T03:35:03.304Z,17.17
2017-01-30T03:36:13.606Z,17.13
2017-01-30T03:37:24.294Z,17.17
2017-01-30T03:38:34.189Z,17.14
2017-01-30T03:39:44.102Z,17.12
2017-01-30T03:40:53.849Z,17.14
2017-01-30T03:42:04.137Z,17.13
2017-01-30T03:43:14.820Z,17.1
2017-01-30T03:44:25.139Z,17.17
2017-01-30T03:45:35.443Z,17.14
2017-01-30T03:46:45.644Z,17.12
2017-01-30T03:47:56.033Z,17.09
2017-01-30T03:49:06.727Z,17.13
2017-01-30T03:50:17.404Z,17.12
2017-01-30T03:51:27.301Z,17.12
2017-01-30T03:52:38.287Z,17.12
2017-01-30T03:53:48.572Z,17.17
2017-01-30T03:54:58.085Z,17.19
2017-01-30T03:56:08.764Z,17.07
2017-01-30T03:57:18.685Z,17.17
2017-01-30T03:58:29.264Z,17.14
2017-01-30T03:59:38.371Z,17.12
2017-01-30T04:00:48.689Z,17.12
2017-01-30T04:01:58.986Z,17.13
2017-01-30T04:03:09.285Z,17.16
2017-01-30T04:04:19.042Z,17.13
2017-01-30T04:05:29.388Z,17.02
2017-01-30T04:06:39.677Z,17.1
2017-01-30T04:07:49.565Z,17.14
2017-01-30T04:08:59.458Z,17.1
2017-01-30T04:10:09.602Z,17.16
2017-01-30T04:11:19.102Z,17.05
2017-01-30T04:12:29.782Z,17.13
2017-01-30T04:13:39.306Z,17.1
2017-01-30T04:14:49.597Z,17.17
2017-01-30T04:15:59.755Z,17.19
2017-01-30T04:17:10.051Z,17.1
2017-01-30T04:18:20.371Z,17.13
2017-01-30T04:19:30.662Z,17.12
2017-01-30T04:20:40.582Z,17.12
2017-01-30T04:21:51.134Z,17.04
2017-01-30T04:23:01.036Z,17.2
2017-01-30T04:24:10.531Z,17.09
2017-01-30T04:25:20.423Z,17.07
2017-01-30T04:26:30.710Z,17.09
2017-01-30T04:27:40.905Z,17.05
2017-01-30T04:28:50.021Z,17.17
2017-01-30T04:29:59.920Z,17.05
2017-01-30T04:31:09.825Z,17.1
2017-01-30T04:32:19.740Z,17.1
2017-01-30T04:33:30.688Z,17.1
2017-01-30T04:34:41.384Z,17.1
2017-01-30T04:35:51.289Z,17.09
2017-01-30T04:37:01.981Z,17.13
2017-01-30T04:38:11.879Z,17.1
2017-01-30T04:39:22.072Z,17.16
2017-01-30T04:40:31.973Z,17.17
2017-01-30T04:41:42.654Z,17.05
2017-01-30T04:42:52.948Z,17.12
2017-01-30T04:44:03.230Z,17.1
2017-01-30T04:45:13.371Z,17.14
2017-01-30T04:46:23.267Z,17.12
2017-01-30T04:47:33.160Z,17.16
2017-01-30T04:48:43.447Z,17.07
2017-01-30T04:49:53.733Z,17.16
2017-01-30T04:51:04.274Z,17.07
2017-01-30T04:52:14.565Z,17.14
2017-01-30T04:53:24.464Z,17.12
2017-01-30T04:54:34.758Z,17.17
2017-01-30T04:55:45.041Z,17.16
2017-01-30T04:56:54.802Z,17.04
2017-01-30T04:58:04.714Z,17.17
2017-01-30T04:59:15.009Z,17.05
2017-01-30T05:00:24.511Z,17.09
2017-01-30T05:01:34.405Z,17.05
2017-01-30T05:02:43.764Z,17.1
2017-01-30T05:03:53.658Z,17.07
2017-01-30T05:05:03.985Z,17.17
2017-01-30T05:06:14.274Z,17.22
2017-01-30T05:07:24.162Z,17.04
2017-01-30T05:08:33.921Z,17.04
2017-01-30T05:09:44.225Z,17.09
2017-01-30T05:10:54.904Z,17.1
2017-01-30T05:12:05.198Z,17.14
2017-01-30T05:13:15.093Z,17.1
2017-01-30T05:14:24.857Z,17.14
2017-01-30T05:15:34.766Z,17.1
2017-01-30T05:16:45.053Z,17.13
2017-01-30T05:17:54.961Z,17.14
2017-01-30T05:19:05.252Z,17.02
2017-01-30T05:20:14.623Z,16.99
2017-01-30T05:21:24.523Z,17.12
2017-01-30T05:22:34.412Z,17.12
2017-01-30T05:23:43.916Z,17.04
2017-01-30T05:24:54.209Z,17.05
2017-01-30T05:26:04.422Z,17.1
2017-01-30T05:27:14.710Z,17.07
2017-01-30T05:28:24.996Z,17.1
2017-01-30T05:29:34.892Z,17.13
2017-01-30T05:30:45.176Z,16.97
2017-01-30T05:31:55.383Z,16.98
2017-01-30T05:33:05.674Z,17.13
2017-01-30T05:34:15.958Z,16.95
2017-01-30T05:35:25.463Z,16.97
2017-01-30T05:36:35.774Z,17.01
2017-01-30T05:37:46.368Z,16.95
2017-01-30T05:38:56.294Z,16.94
2017-01-30T05:40:05.401Z,16.97
2017-01-30T05:41:16.098Z,16.92
2017-01-30T05:42:26.395Z,16.86
2017-01-30T05:43:37.628Z,16.83
2017-01-30T05:44:48.304Z,16.89
2017-01-30T05:45:58.198Z,16.87
2017-01-30T05:47:07.702Z,16.82
2017-01-30T05:48:17.589Z,16.87
2017-01-30T05:49:28.542Z,16.87
2017-01-30T05:50:39.226Z,16.86
2017-01-30T05:51:49.947Z,16.87
2017-01-30T05:53:00.635Z,16.87
2017-01-30T05:54:09.743Z,16.91
2017-01-30T05:55:19.904Z,16.8
2017-01-30T05:56:29.803Z,16.8
2017-01-30T05:57:40.095Z,16.84
2017-01-30T05:58:50.882Z,16.86
2017-01-30T06:00:01.172Z,16.76
2017-01-30T06:01:10.929Z,16.74
2017-01-30T06:02:20.822Z,16.86
2017-01-30T06:03:30.724Z,16.84
2017-01-30T06:04:40.618Z,16.82
2017-01-30T06:05:50.534Z,16.77
2017-01-30T06:07:01.078Z,16.8
2017-01-30T06:08:10.602Z,16.77
2017-01-30T06:09:19.726Z,16.86
2017-01-30T06:10:30.031Z,16.72
2017-01-30T06:11:39.936Z,16.76
2017-01-30T06:12:50.510Z,16.8
2017-01-30T06:14:00.403Z,16.8
2017-01-30T06:15:10.291Z,16.77
2017-01-30T06:16:20.190Z,16.8
2017-01-30T06:17:30.091Z,16.83
2017-01-30T06:18:40.686Z,16.72
2017-01-30T06:19:50.976Z,16.69
2017-01-30T06:21:01.258Z,16.77
2017-01-30T06:22:10.374Z,16.72
2017-01-30T06:23:20.665Z,16.76
2017-01-30T06:24:31.263Z,16.73
2017-01-30T06:25:41.574Z,16.74
2017-01-30T06:26:51.085Z,16.79
2017-01-30T06:28:01.377Z,16.69
2017-01-30T06:29:12.049Z,16.72
2017-01-30T06:30:21.422Z,16.66
2017-01-30T06:31:31.724Z,16.8
2017-01-30T06:32:41.621Z,16.73
2017-01-30T06:33:51.530Z,16.76
2017-01-30T06:35:01.820Z,16.76
2017-01-30T06:36:12.032Z,16.79
2017-01-30T06:37:22.708Z,16.82
2017-01-30T06:38:33.404Z,16.74
2017-01-30T06:39:42.922Z,16.74
2017-01-30T06:40:53.220Z,16.76
2017-01-30T06:42:03.421Z,16.68
2017-01-30T06:43:13.317Z,16.72
2017-01-30T06:44:23.224Z,16.69
2017-01-30T06:45:33.525Z,16.72
2017-01-30T06:46:44.218Z,16.8
2017-01-30T06:47:54.768Z,16.79
2017-01-30T06:49:05.055Z,16.73
2017-01-30T06:50:14.944Z,16.8
2017-01-30T06:51:25.233Z,16.65
2017-01-30T06:52:35.332Z,16.76
2017-01-30T06:53:45.530Z,16.74
2017-01-30T06:54:55.430Z,16.79
2017-01-30T06:56:05.324Z,16.8
2017-01-30T06:57:14.046Z,16.68
2017-01-30T06:58:24.736Z,16.86
2017-01-30T06:59:35.330Z,16.84
2017-01-30T07:00:45.229Z,16.83
2017-01-30T07:01:55.925Z,16.83
2017-01-30T07:03:05.428Z,16.83
2017-01-30T07:04:15.712Z,16.8
2017-01-30T07:05:26.647Z,16.79
2017-01-30T07:06:36.555Z,16.69
2017-01-30T07:07:46.455Z,16.87
2017-01-30T07:08:56.769Z,16.83
2017-01-30T07:10:06.669Z,16.86
2017-01-30T07:11:17.202Z,16.87
2017-01-30T07:12:27.111Z,16.84
2017-01-30T07:13:37.021Z,16.8
2017-01-30T07:14:47.329Z,16.91
2017-01-30T07:15:57.646Z,16.89
2017-01-30T07:17:08.577Z,16.89
2017-01-30T07:18:18.861Z,16.86
2017-01-30T07:19:29.562Z,16.84
2017-01-30T07:20:40.246Z,16.84
2017-01-30T07:21:50.541Z,16.83
2017-01-30T07:23:00.744Z,16.84
2017-01-30T07:24:11.038Z,16.84
2017-01-30T07:25:20.936Z,16.87
2017-01-30T07:26:31.620Z,16.84
2017-01-30T07:27:41.914Z,16.87
2017-01-30T07:28:52.899Z,16.82
2017-01-30T07:30:03.184Z,16.89
2017-01-30T07:31:13.492Z,16.91
2017-01-30T07:32:23.397Z,16.84
2017-01-30T07:33:33.309Z,16.87
2017-01-30T07:34:43.919Z,16.97
2017-01-30T07:35:54.236Z,16.91
2017-01-30T07:37:04.558Z,16.86
2017-01-30T07:38:14.459Z,16.89
2017-01-30T07:39:24.369Z,16.92
2017-01-30T07:40:35.337Z,16.91
2017-01-30T07:41:45.634Z,16.98
2017-01-30T07:42:55.564Z,16.84
2017-01-30T07:44:05.084Z,16.92
2017-01-30T07:45:15.772Z,16.94
2017-01-30T07:46:25.533Z,16.95
2017-01-30T07:47:35.057Z,16.99
2017-01-30T07:48:44.577Z,16.97
2017-01-30T07:49:54.466Z,16.95
2017-01-30T07:51:04.783Z,17.07
2017-01-30T07:52:14.935Z,17.05
2017-01-30T07:53:25.224Z,17.12
2017-01-30T07:54:35.526Z,17.14
2017-01-30T07:55:45.433Z,17.05
2017-01-30T07:56:55.733Z,16.98
2017-01-30T07:58:05.937Z,16.98
2017-01-30T07:59:16.226Z,16.99
2017-01-30T08:00:26.127Z,16.97
2017-01-30T08:01:36.034Z,17.09
2017-01-30T08:02:45.945Z,17.1
2017-01-30T08:03:56.113Z,16.95
2017-01-30T08:05:06.420Z,17.02
2017-01-30T08:06:17.108Z,16.97
2017-01-30T08:07:27.398Z,17.02
2017-01-30T08:08:38.089Z,17.05
2017-01-30T08:09:49.031Z,16.98
2017-01-30T08:10:58.576Z,17.12
2017-01-30T08:12:09.294Z,17.07
2017-01-30T08:13:18.799Z,17.04
2017-01-30T08:14:29.481Z,17.1
2017-01-30T08:15:40.074Z,17.01
2017-01-30T08:16:50.363Z,17.05
2017-01-30T08:18:00.678Z,17.05
2017-01-30T08:19:10.978Z,16.99
2017-01-30T08:20:21.664Z,16.92
2017-01-30T08:21:31.827Z,16.97
2017-01-30T08:22:41.724Z,17.13
2017-01-30T08:23:52.061Z,17.1
2017-01-30T08:25:02.775Z,17.09
2017-01-30T08:26:13.076Z,17.13
2017-01-30T08:27:23.279Z,17.12
2017-01-30T08:28:33.963Z,17.05
2017-01-30T08:29:43.076Z,17.1
2017-01-30T08:30:52.575Z,17.07
2017-01-30T08:32:03.026Z,17.04
2017-01-30T08:33:13.968Z,17.2
2017-01-30T08:34:23.511Z,17.17
2017-01-30T08:35:33.815Z,17.12
2017-01-30T08:36:43.718Z,17.1
2017-01-30T08:37:54.429Z,17.1
2017-01-30T08:39:04.192Z,17.16
2017-01-30T08:40:13.778Z,17.01
2017-01-30T08:41:24.100Z,17.12
2017-01-30T08:42:34.726Z,17.13
2017-01-30T08:43:45.420Z,17.07
2017-01-30T08:44:55.967Z,17.14
2017-01-30T08:46:05.873Z,17.1
2017-01-30T08:47:15.772Z,17.16
2017-01-30T08:48:26.099Z,17.14
2017-01-30T08:49:36.790Z,17.12
2017-01-30T08:50:47.395Z,17.12
2017-01-30T08:51:57.702Z,17.14
2017-01-30T08:53:07.991Z,17.2
2017-01-30T08:54:18.290Z,17.19
2017-01-30T08:55:27.805Z,17.24
2017-01-30T08:56:37.967Z,17.19
2017-01-30T08:57:48.254Z,17.13
2017-01-30T08:58:58.572Z,17.27
2017-01-30T09:00:08.078Z,17.19
2017-01-30T09:01:18.774Z,17.31
2017-01-30T09:02:28.941Z,17.28
2017-01-30T09:03:39.634Z,17.28
2017-01-30T09:04:49.573Z,17.32
2017-01-30T09:05:59.882Z,17.37
2017-01-30T09:07:10.192Z,17.42
2017-01-30T09:08:20.406Z,17.37
2017-01-30T09:09:31.095Z,17.34
2017-01-30T09:10:41.028Z,17.39
2017-01-30T09:11:50.536Z,17.52
2017-01-30T09:13:00.452Z,17.53
2017-01-30T09:14:10.640Z,17.56
2017-01-30T09:15:20.948Z,17.65
2017-01-30T09:16:31.647Z,17.57
2017-01-30T09:17:41.948Z,17.68
2017-01-30T09:18:52.662Z,17.57
2017-01-30T09:20:02.475Z,17.71
2017-01-30T09:21:11.590Z,17.63
2017-01-30T09:22:21.503Z,17.53
2017-01-30T09:23:32.191Z,17.5
2017-01-30T09:24:42.100Z,17.5
2017-01-30T09:25:52.713Z,17.49
2017-01-30T09:27:03.397Z,17.47
2017-01-30T09:28:13.300Z,17.56
2017-01-30T09:29:23.605Z,17.49
2017-01-30T09:30:33.896Z,17.5
2017-01-30T09:31:44.502Z,17.52
2017-01-30T09:32:55.188Z,17.52
2017-01-30T09:34:05.109Z,17.59
2017-01-30T09:35:15.015Z,17.66
2017-01-30T09:36:25.311Z,17.65
2017-01-30T09:37:35.934Z,17.65
2017-01-30T09:38:45.852Z,17.63
2017-01-30T09:39:55.774Z,17.63
2017-01-30T09:41:05.719Z,17.63
2017-01-30T09:42:16.013Z,17.59
2017-01-30T09:43:26.567Z,17.66
2017-01-30T09:44:36.477Z,17.65
2017-01-30T09:45:46.383Z,17.68
2017-01-30T09:46:55.906Z,17.69
2017-01-30T09:48:06.599Z,17.6
2017-01-30T09:49:16.373Z,17.57
2017-01-30T09:50:27.070Z,17.57
2017-01-30T09:51:36.978Z,17.71
2017-01-30T09:52:46.904Z,17.6
2017-01-30T09:53:57.595Z,17.63
2017-01-30T09:55:07.838Z,17.68
2017-01-30T09:56:18.144Z,17.69
2017-01-30T09:57:28.435Z,17.68
2017-01-30T09:58:39.143Z,17.68
2017-01-30T09:59:49.446Z,17.65
2017-01-30T10:00:59.687Z,17.69
2017-01-30T10:02:10.373Z,17.57
2017-01-30T10:03:20.281Z,17.71
2017-01-30T10:04:30.597Z,17.57
2017-01-30T10:05:41.528Z,17.66
2017-01-30T10:06:50.900Z,17.68
2017-01-30T10:08:00.814Z,17.65
2017-01-30T10:09:10.736Z,17.68
2017-01-30T10:10:21.043Z,17.63
2017-01-30T10:11:30.939Z,17.52
2017-01-30T10:12:40.811Z,17.57
2017-01-30T10:13:50.733Z,17.65
2017-01-30T10:15:00.676Z,17.47
2017-01-30T10:16:10.970Z,17.49
2017-01-30T10:17:21.709Z,17.66
2017-01-30T10:18:31.487Z,17.52
2017-01-30T10:19:41.805Z,17.54
2017-01-30T10:20:51.708Z,17.5
2017-01-30T10:22:01.225Z,17.54
2017-01-30T10:23:11.534Z,17.6
2017-01-30T10:24:21.748Z,17.57
2017-01-30T10:25:32.471Z,17.52
2017-01-30T10:26:42.787Z,17.46
2017-01-30T10:27:53.489Z,17.47
2017-01-30T10:29:03.796Z,17.49
2017-01-30T10:30:14.749Z,17.41
2017-01-30T10:31:24.663Z,17.49
2017-01-30T10:32:34.167Z,17.41
2017-01-30T10:33:43.680Z,17.5
2017-01-30T10:34:53.588Z,17.44
2017-01-30T10:36:03.743Z,17.47
2017-01-30T10:37:13.472Z,17.47
2017-01-30T10:38:22.587Z,17.53
2017-01-30T10:39:32.488Z,17.46
2017-01-30T10:40:42.789Z,17.49
2017-01-30T10:41:52.605Z,17.52
2017-01-30T10:43:02.522Z,17.47
2017-01-30T10:44:12.441Z,17.52
2017-01-30T10:45:23.125Z,17.52
2017-01-30T10:46:33.041Z,17.52
2017-01-30T10:47:43.249Z,17.53
2017-01-30T10:48:53.935Z,17.57
2017-01-30T10:50:03.445Z,17.47
2017-01-30T10:51:14.151Z,17.57
2017-01-30T10:52:24.040Z,17.52
2017-01-30T10:53:34.584Z,17.49
2017-01-30T10:54:44.882Z,17.6
2017-01-30T10:55:55.575Z,17.66
2017-01-30T10:57:05.875Z,17.65
2017-01-30T10:58:15.782Z,17.63
2017-01-30T10:59:26.376Z,17.71
2017-01-30T11:00:35.884Z,17.6
2017-01-30T11:01:46.612Z,17.65
2017-01-30T11:02:56.902Z,17.68
2017-01-30T11:04:07.632Z,17.65
2017-01-30T11:05:18.581Z,17.63
2017-01-30T11:06:28.081Z,17.6
2017-01-30T11:07:38.389Z,17.57
2017-01-30T11:08:48.682Z,17.59
2017-01-30T11:09:58.595Z,17.66
2017-01-30T11:11:09.193Z,17.53
2017-01-30T11:12:19.889Z,17.49
2017-01-30T11:13:30.189Z,17.6
2017-01-30T11:14:39.694Z,17.5
2017-01-30T11:15:49.600Z,17.5
2017-01-30T11:16:59.750Z,17.52
2017-01-30T11:18:10.454Z,17.49
2017-01-30T11:19:20.349Z,17.49
2017-01-30T11:20:30.662Z,17.68
2017-01-30T11:21:40.951Z,17.69
2017-01-30T11:22:50.767Z,17.53
2017-01-30T11:24:00.668Z,17.52
2017-01-30T11:25:11.357Z,17.52
2017-01-30T11:26:22.052Z,17.54
2017-01-30T11:27:31.559Z,17.53
2017-01-30T11:28:42.202Z,17.56
2017-01-30T11:29:52.522Z,17.5
2017-01-30T11:31:03.226Z,17.54
2017-01-30T11:32:13.139Z,17.49
2017-01-30T11:33:23.448Z,17.59
2017-01-30T11:34:33.671Z,17.66
2017-01-30T11:35:44.392Z,17.63
2017-01-30T11:36:55.099Z,17.53
2017-01-30T11:38:04.215Z,17.57
2017-01-30T11:39:14.515Z,17.68
2017-01-30T11:40:24.724Z,17.59
2017-01-30T11:41:35.453Z,17.73
2017-01-30T11:42:45.351Z,17.56
2017-01-30T11:43:54.860Z,17.57
2017-01-30T11:45:05.552Z,17.65
2017-01-30T11:46:15.762Z,17.66
2017-01-30T11:47:26.060Z,17.59
2017-01-30T11:48:36.391Z,17.68
2017-01-30T11:49:46.704Z,17.56
2017-01-30T11:50:57.000Z,17.65
2017-01-30T11:52:07.951Z,17.66
2017-01-30T11:53:17.880Z,17.63
2017-01-30T11:54:28.382Z,17.72
2017-01-30T11:55:38.286Z,17.72
2017-01-30T11:56:47.806Z,17.75
2017-01-30T11:57:58.404Z,17.71
2017-01-30T11:59:09.098Z,17.63
2017-01-30T12:00:19.402Z,17.71
2017-01-30T12:01:29.731Z,17.66
2017-01-30T12:02:39.665Z,17.63
2017-01-30T12:03:50.300Z,17.76
2017-01-30T12:04:59.814Z,17.72
2017-01-30T12:06:09.341Z,17.82
2017-01-30T12:07:19.661Z,17.84
2017-01-30T12:08:29.569Z,17.88
2017-01-30T12:09:40.139Z,17.76
2017-01-30T12:10:50.836Z,17.79
2017-01-30T12:12:01.547Z,17.76
2017-01-30T12:13:11.843Z,17.8
2017-01-30T12:14:22.150Z,17.84
2017-01-30T12:15:32.116Z,17.93
2017-01-30T12:16:42.011Z,17.88
2017-01-30T12:17:51.525Z,17.87
2017-01-30T12:19:01.044Z,17.9
2017-01-30T12:20:11.339Z,17.93
2017-01-30T12:21:21.941Z,17.86
2017-01-30T12:22:32.237Z,17.91
2017-01-30T12:23:42.535Z,17.8
2017-01-30T12:24:53.227Z,17.8
2017-01-30T12:26:03.544Z,17.84
2017-01-30T12:27:14.086Z,17.82
2017-01-30T12:28:24.772Z,17.9
2017-01-30T12:29:34.685Z,17.9
2017-01-30T12:30:44.981Z,17.87
2017-01-30T12:31:55.279Z,17.9
2017-01-30T12:33:05.485Z,17.91
2017-01-30T12:34:14.999Z,17.86
2017-01-30T12:35:25.690Z,17.88
2017-01-30T12:36:35.227Z,17.82
2017-01-30T12:37:45.528Z,17.75
2017-01-30T12:38:55.313Z,17.66
2017-01-30T12:40:04.464Z,17.63
2017-01-30T12:41:14.373Z,17.71
2017-01-30T12:42:23.887Z,17.71
2017-01-30T12:43:34.188Z,17.57
2017-01-30T12:44:44.734Z,17.65
2017-01-30T12:45:55.413Z,17.66
2017-01-30T12:47:05.746Z,17.59
2017-01-30T12:48:16.036Z,17.68
2017-01-30T12:49:25.938Z,17.68
2017-01-30T12:50:36.531Z,17.72
2017-01-30T12:51:46.041Z,17.6
2017-01-30T12:52:56.337Z,17.57
2017-01-30T12:54:06.238Z,17.66
2017-01-30T12:55:16.927Z,17.65
2017-01-30T12:56:27.526Z,17.54
2017-01-30T12:57:38.215Z,17.57
2017-01-30T12:58:48.134Z,17.66
2017-01-30T12:59:58.876Z,17.63
2017-01-30T13:01:09.584Z,17.6
2017-01-30T13:02:19.399Z,17.47
2017-01-30T13:03:29.302Z,17.41
2017-01-30T13:04:39.589Z,17.38
2017-01-30T13:05:49.888Z,17.44
2017-01-30T13:07:00.172Z,17.44
2017-01-30T13:08:10.742Z,17.44
2017-01-30T13:09:21.045Z,17.47
2017-01-30T13:10:31.339Z,17.44
2017-01-30T13:11:41.251Z,17.38
2017-01-30T13:12:51.946Z,17.5
2017-01-30T13:14:01.754Z,17.44
2017-01-30T13:15:12.054Z,17.44
2017-01-30T13:16:22.761Z,17.41
2017-01-30T13:17:33.448Z,17.42
2017-01-30T13:18:43.748Z,17.38
2017-01-30T13:19:53.567Z,17.44
2017-01-30T13:21:03.868Z,17.37
2017-01-30T13:22:13.379Z,17.44
2017-01-30T13:23:23.290Z,17.39
2017-01-30T13:24:32.806Z,17.49
2017-01-30T13:25:43.356Z,17.46
2017-01-30T13:26:53.665Z,17.42
2017-01-30T13:28:04.363Z,17.42
2017-01-30T13:29:13.467Z,17.37
2017-01-30T13:30:23.378Z,17.37
2017-01-30T13:31:33.149Z,17.31
2017-01-30T13:32:43.072Z,17.3
2017-01-30T13:33:52.981Z,17.38
2017-01-30T13:35:03.297Z,17.39
2017-01-30T13:36:13.593Z,17.35
2017-01-30T13:37:23.744Z,17.32
2017-01-30T13:38:34.465Z,17.37
2017-01-30T13:39:44.763Z,17.37
2017-01-30T13:40:54.681Z,17.42
2017-01-30T13:42:04.591Z,17.39
2017-01-30T13:43:13.951Z,17.35
2017-01-30T13:44:23.476Z,17.49
2017-01-30T13:45:33.384Z,17.47
2017-01-30T13:46:43.285Z,17.46
2017-01-30T13:47:53.593Z,17.47
2017-01-30T13:49:04.230Z,17.49
2017-01-30T13:50:14.134Z,17.41
2017-01-30T13:51:24.440Z,17.47
2017-01-30T13:52:34.746Z,17.44
2017-01-30T13:53:45.039Z,17.37
2017-01-30T13:54:55.244Z,17.38
2017-01-30T13:56:04.754Z,17.35
2017-01-30T13:57:14.659Z,17.42
2017-01-30T13:58:24.976Z,17.34
2017-01-30T13:59:35.672Z,17.37
2017-01-30T14:00:46.599Z,17.49
2017-01-30T14:01:56.503Z,17.38
2017-01-30T14:03:06.023Z,17.39
2017-01-30T14:04:15.638Z,17.32
2017-01-30T14:05:25.543Z,17.35
2017-01-30T14:06:36.151Z,17.41
2017-01-30T14:07:46.852Z,17.39
2017-01-30T14:08:57.152Z,17.39
2017-01-30T14:10:07.067Z,17.35
2017-01-30T14:11:16.987Z,17.32
2017-01-30T14:12:26.398Z,17.37
2017-01-30T14:13:37.128Z,17.39
2017-01-30T14:14:47.439Z,17.35
2017-01-30T14:15:57.352Z,17.37
2017-01-30T14:17:07.671Z,17.39
2017-01-30T14:18:18.666Z,17.38
2017-01-30T14:19:28.961Z,17.42
2017-01-30T14:20:39.263Z,17.38
2017-01-30T14:21:48.773Z,17.38
2017-01-30T14:22:58.672Z,17.28
2017-01-30T14:24:09.224Z,17.37
2017-01-30T14:25:19.533Z,17.3
2017-01-30T14:26:29.871Z,17.34
2017-01-30T14:27:40.176Z,17.32
2017-01-30T14:28:50.497Z,17.3
2017-01-30T14:30:00.690Z,17.28
2017-01-30T14:31:10.615Z,17.24
2017-01-30T14:32:20.518Z,17.22
2017-01-30T14:33:31.203Z,17.16
2017-01-30T14:34:41.104Z,17.2
2017-01-30T14:35:51.952Z,17.2
2017-01-30T14:37:01.855Z,17.1
2017-01-30T14:38:12.565Z,17.16
2017-01-30T14:39:23.293Z,17.12
2017-01-30T14:40:34.016Z,17.07
2017-01-30T14:41:44.579Z,17.12
2017-01-30T14:42:55.277Z,17.07
2017-01-30T14:44:05.579Z,17.13
2017-01-30T14:45:15.868Z,17.04
2017-01-30T14:46:25.396Z,17.1
2017-01-30T14:47:35.501Z,17.07
2017-01-30T14:48:45.814Z,17.13
2017-01-30T14:49:56.521Z,17.16
2017-01-30T14:51:06.061Z,17.09
2017-01-30T14:52:15.972Z,17.12
2017-01-30T14:53:26.529Z,17.04
2017-01-30T14:54:36.073Z,17.14
2017-01-30T14:55:46.362Z,17.12
2017-01-30T14:56:56.264Z,17.17
2017-01-30T14:58:06.967Z,17.02
2017-01-30T14:59:17.119Z,17.12
2017-01-30T15:00:26.648Z,16.99
2017-01-30T15:01:37.364Z,17.1
2017-01-30T15:02:47.280Z,17.01
2017-01-30T15:03:56.795Z,17.17
2017-01-30T15:05:07.750Z,17.14
2017-01-30T15:06:18.090Z,17.14
2017-01-30T15:07:28.777Z,17.17
2017-01-30T15:08:39.094Z,17.12